sensor_id;sensor_type;location;lat;lon;timestamp;pressure;altitude;pressure_sealevel;temperature;humidity
39197;BME280;42889;51.112;13.772;2022-12-07T00:01:06;98908.03;;;1.62;100.00
39197;BME280;42889;51.112;13.772;2022-12-07T00:03:33;98901.03;;;1.48;100.00
39197;BME280;42889;51.112;13.772;2022-12-07T00:06:01;98898.41;;;1.61;100.00
39197;BME280;42889;51.112;13.772;2022-12-07T00:08:29;98899.38;;;1.60;100.00
39197;BME280;42889;51.112;13.772;2022-12-07T00:11:03;98901.69;;;1.51;100.00
39197;BME280;42889;51.112;13.772;2022-12-07T00:13:32;98895.75;;;1.61;100.00
39197;BME280;42889;51.112;13.772;2022-12-07T00:16:06;98898.81;;;1.67;100.00
39197;BME280;42889;51.112;13.772;2022-12-07T00:18:33;98893.81;;;1.63;100.00
39197;BME280;42889;51.112;13.772;2022-12-07T00:21:10;98899.69;;;1.55;100.00
39197;BME280;42889;51.112;13.772;2022-12-07T00:23:37;98894.47;;;1.53;100.00
39197;BME280;42889;51.112;13.772;2022-12-07T00:26:09;98894.38;;;1.55;100.00
39197;BME280;42889;51.112;13.772;2022-12-07T00:28:36;98884.38;;;1.58;100.00
39197;BME280;42889;51.112;13.772;2022-12-07T00:31:09;98878.13;;;1.47;100.00
39197;BME280;42889;51.112;13.772;2022-12-07T00:33:36;98881.88;;;1.44;100.00
39197;BME280;42889;51.112;13.772;2022-12-07T00:36:06;98877.63;;;1.42;100.00
39197;BME280;42889;51.112;13.772;2022-12-07T00:38:35;98873.81;;;1.46;100.00
39197;BME280;42889;51.112;13.772;2022-12-07T00:41:09;98881.13;;;1.42;100.00
39197;BME280;42889;51.112;13.772;2022-12-07T00:43:37;98875.06;;;1.53;100.00
39197;BME280;42889;51.112;13.772;2022-12-07T00:46:03;98877.94;;;1.50;100.00
39197;BME280;42889;51.112;13.772;2022-12-07T00:48:30;98872.53;;;1.39;100.00
39197;BME280;42889;51.112;13.772;2022-12-07T00:50:57;98878.47;;;1.55;100.00
39197;BME280;42889;51.112;13.772;2022-12-07T00:53:24;98870.84;;;1.38;100.00
39197;BME280;42889;51.112;13.772;2022-12-07T00:55:50;98860.22;;;1.50;100.00
39197;BME280;42889;51.112;13.772;2022-12-07T00:58:19;98875.69;;;1.56;100.00
39197;BME280;42889;51.112;13.772;2022-12-07T01:00:45;98872.72;;;1.48;100.00
39197;BME280;42889;51.112;13.772;2022-12-07T01:03:16;98864.38;;;1.54;100.00
39197;BME280;42889;51.112;13.772;2022-12-07T01:05:54;98873.69;;;1.47;100.00
39197;BME280;42889;51.112;13.772;2022-12-07T01:08:22;98871.47;;;1.54;100.00
39197;BME280;42889;51.112;13.772;2022-12-07T01:10:57;98867.22;;;1.51;100.00
39197;BME280;42889;51.112;13.772;2022-12-07T01:13:23;98866.16;;;1.54;100.00
39197;BME280;42889;51.112;13.772;2022-12-07T01:15:50;98869.34;;;1.46;100.00
39197;BME280;42889;51.112;13.772;2022-12-07T01:18:17;98865.72;;;1.60;100.00
39197;BME280;42889;51.112;13.772;2022-12-07T01:20:43;98866.47;;;1.62;100.00
39197;BME280;42889;51.112;13.772;2022-12-07T01:23:10;98857.25;;;1.55;100.00
39197;BME280;42889;51.112;13.772;2022-12-07T01:25:36;98866.34;;;1.64;100.00
39197;BME280;42889;51.112;13.772;2022-12-07T01:28:03;98862.84;;;1.63;100.00
39197;BME280;42889;51.112;13.772;2022-12-07T01:30:30;98855.97;;;1.61;100.00
39197;BME280;42889;51.112;13.772;2022-12-07T01:32:56;98847.88;;;1.62;100.00
39197;BME280;42889;51.112;13.772;2022-12-07T01:35:23;98850.22;;;1.67;100.00
39197;BME280;42889;51.112;13.772;2022-12-07T01:37:49;98851.31;;;1.51;100.00
39197;BME280;42889;51.112;13.772;2022-12-07T01:40:17;98857.84;;;1.58;100.00
39197;BME280;42889;51.112;13.772;2022-12-07T01:42:44;98856.94;;;1.60;100.00
39197;BME280;42889;51.112;13.772;2022-12-07T01:48:02;98853.19;;;1.62;100.00
39197;BME280;42889;51.112;13.772;2022-12-07T01:50:30;98857.53;;;1.63;100.00
39197;BME280;42889;51.112;13.772;2022-12-07T01:53:02;98854.28;;;1.47;100.00
39197;BME280;42889;51.112;13.772;2022-12-07T01:55:30;98859.25;;;1.51;100.00
39197;BME280;42889;51.112;13.772;2022-12-07T01:57:57;98856.56;;;1.64;100.00
39197;BME280;42889;51.112;13.772;2022-12-07T02:00:24;98856.69;;;1.63;100.00
39197;BME280;42889;51.112;13.772;2022-12-07T02:02:54;98851.72;;;1.58;100.00
39197;BME280;42889;51.112;13.772;2022-12-07T02:05:24;98857.78;;;1.60;100.00
39197;BME280;42889;51.112;13.772;2022-12-07T02:07:53;98856.94;;;1.60;100.00
39197;BME280;42889;51.112;13.772;2022-12-07T02:10:26;98856.94;;;1.60;100.00
39197;BME280;42889;51.112;13.772;2022-12-07T02:13:00;98861.34;;;1.59;100.00
39197;BME280;42889;51.112;13.772;2022-12-07T02:18:40;98848.66;;;1.51;100.00
39197;BME280;42889;51.112;13.772;2022-12-07T02:21:33;98856.09;;;1.46;100.00
39197;BME280;42889;51.112;13.772;2022-12-07T02:24:14;98854.06;;;1.37;100.00
39197;BME280;42889;51.112;13.772;2022-12-07T02:27:21;98856.00;;;1.35;100.00
39197;BME280;42889;51.112;13.772;2022-12-07T02:30:04;98846.47;;;1.20;100.00
39197;BME280;42889;51.112;13.772;2022-12-07T02:32:42;98843.06;;;1.30;100.00
39197;BME280;42889;51.112;13.772;2022-12-07T02:35:20;98839.47;;;1.19;100.00
39197;BME280;42889;51.112;13.772;2022-12-07T02:40:36;98842.66;;;0.98;100.00
39197;BME280;42889;51.112;13.772;2022-12-07T02:43:12;98834.81;;;0.84;100.00
39197;BME280;42889;51.112;13.772;2022-12-07T02:45:42;98835.88;;;0.82;100.00
39197;BME280;42889;51.112;13.772;2022-12-07T02:48:12;98837.91;;;0.78;100.00
39197;BME280;42889;51.112;13.772;2022-12-07T02:50:45;98832.78;;;0.75;100.00
39197;BME280;42889;51.112;13.772;2022-12-07T02:53:36;98829.59;;;0.70;100.00
39197;BME280;42889;51.112;13.772;2022-12-07T02:56:10;98820.41;;;0.63;100.00
39197;BME280;42889;51.112;13.772;2022-12-07T03:01:24;98820.09;;;0.80;100.00
39197;BME280;42889;51.112;13.772;2022-12-07T03:06:51;98811.41;;;0.78;100.00
39197;BME280;42889;51.112;13.772;2022-12-07T03:09:49;98812.56;;;0.74;100.00
39197;BME280;42889;51.112;13.772;2022-12-07T03:12:24;98808.84;;;0.76;100.00
39197;BME280;42889;51.112;13.772;2022-12-07T03:15:03;98805.88;;;0.68;100.00
39197;BME280;42889;51.112;13.772;2022-12-07T03:17:34;98800.47;;;0.57;100.00
39197;BME280;42889;51.112;13.772;2022-12-07T03:20:05;98808.72;;;0.52;100.00
39197;BME280;42889;51.112;13.772;2022-12-07T03:22:35;98798.53;;;0.34;100.00
39197;BME280;42889;51.112;13.772;2022-12-07T03:25:09;98794.69;;;0.25;100.00
39197;BME280;42889;51.112;13.772;2022-12-07T03:27:51;98792.25;;;0.22;100.00
39197;BME280;42889;51.112;13.772;2022-12-07T03:30:27;98794.28;;;0.31;100.00
39197;BME280;42889;51.112;13.772;2022-12-07T03:33:17;98787.28;;;0.17;100.00
39197;BME280;42889;51.112;13.772;2022-12-07T03:38:58;98790.84;;;0.16;100.00
39197;BME280;42889;51.112;13.772;2022-12-07T03:41:30;98795.63;;;0.11;100.00
39197;BME280;42889;51.112;13.772;2022-12-07T03:43:58;98788.41;;;0.01;100.00
39197;BME280;42889;51.112;13.772;2022-12-07T03:49:06;98782.41;;;0.11;100.00
39197;BME280;42889;51.112;13.772;2022-12-07T03:51:55;98783.56;;;0.07;100.00
39197;BME280;42889;51.112;13.772;2022-12-07T03:56:55;98782.91;;;0.04;100.00
39197;BME280;42889;51.112;13.772;2022-12-07T03:59:23;98775.50;;;0.09;100.00
39197;BME280;42889;51.112;13.772;2022-12-07T04:01:57;98771.91;;;0.10;100.00
39197;BME280;42889;51.112;13.772;2022-12-07T04:04:27;98776.06;;;0.14;100.00
39197;BME280;42889;51.112;13.772;2022-12-07T04:06:54;98774.91;;;0.18;100.00
39197;BME280;42889;51.112;13.772;2022-12-07T04:09:21;98775.44;;;0.23;100.00
39197;BME280;42889;51.112;13.772;2022-12-07T04:11:48;98770.34;;;0.20;100.00
39197;BME280;42889;51.112;13.772;2022-12-07T04:14:15;98766.13;;;0.30;100.00
39197;BME280;42889;51.112;13.772;2022-12-07T04:16:56;98758.06;;;0.19;100.00
39197;BME280;42889;51.112;13.772;2022-12-07T04:19:28;98755.56;;;0.30;100.00
39197;BME280;42889;51.112;13.772;2022-12-07T04:21:56;98755.94;;;0.11;100.00
39197;BME280;42889;51.112;13.772;2022-12-07T04:24:24;98758.13;;;0.05;100.00
39197;BME280;42889;51.112;13.772;2022-12-07T04:26:51;98749.28;;;0.06;100.00
39197;BME280;42889;51.112;13.772;2022-12-07T04:29:18;98756.56;;;0.02;100.00
39197;BME280;42889;51.112;13.772;2022-12-07T04:31:45;98745.53;;;-0.05;100.00
39197;BME280;42889;51.112;13.772;2022-12-07T04:34:13;98745.56;;;0.08;100.00
39197;BME280;42889;51.112;13.772;2022-12-07T04:36:40;98740.69;;;0.02;100.00
39197;BME280;42889;51.112;13.772;2022-12-07T04:39:08;98743.81;;;-0.06;100.00
39197;BME280;42889;51.112;13.772;2022-12-07T04:41:39;98734.28;;;-0.21;100.00
39197;BME280;42889;51.112;13.772;2022-12-07T04:44:06;98726.97;;;-0.17;100.00
39197;BME280;42889;51.112;13.772;2022-12-07T04:46:33;98725.09;;;-0.15;100.00
39197;BME280;42889;51.112;13.772;2022-12-07T04:49:00;98722.88;;;-0.21;100.00
39197;BME280;42889;51.112;13.772;2022-12-07T04:51:28;98725.69;;;-0.24;100.00
39197;BME280;42889;51.112;13.772;2022-12-07T04:53:55;98732.41;;;-0.33;100.00
39197;BME280;42889;51.112;13.772;2022-12-07T04:56:23;98724.91;;;-0.39;100.00
39197;BME280;42889;51.112;13.772;2022-12-07T04:58:51;98711.63;;;-0.25;100.00
39197;BME280;42889;51.112;13.772;2022-12-07T05:01:18;98713.00;;;-0.32;100.00
39197;BME280;42889;51.112;13.772;2022-12-07T05:03:46;98712.16;;;-0.33;100.00
39197;BME280;42889;51.112;13.772;2022-12-07T05:06:14;98710.56;;;-0.22;100.00
39197;BME280;42889;51.112;13.772;2022-12-07T05:08:41;98697.25;;;-0.21;100.00
39197;BME280;42889;51.112;13.772;2022-12-07T05:11:09;98702.88;;;-0.13;100.00
39197;BME280;42889;51.112;13.772;2022-12-07T05:13:36;98710.38;;;-0.07;100.00
39197;BME280;42889;51.112;13.772;2022-12-07T05:16:03;98707.00;;;-0.09;100.00
39197;BME280;42889;51.112;13.772;2022-12-07T05:18:29;98704.06;;;-0.04;100.00
39197;BME280;42889;51.112;13.772;2022-12-07T05:20:56;98700.13;;;-0.11;100.00
39197;BME280;42889;51.112;13.772;2022-12-07T05:23:22;98702.56;;;-0.08;100.00
39197;BME280;42889;51.112;13.772;2022-12-07T05:25:49;98700.63;;;-0.19;100.00
39197;BME280;42889;51.112;13.772;2022-12-07T05:28:16;98697.94;;;0.08;100.00
39197;BME280;42889;51.112;13.772;2022-12-07T05:30:43;98693.31;;;0.12;100.00
39197;BME280;42889;51.112;13.772;2022-12-07T05:33:09;98705.06;;;0.33;100.00
39197;BME280;42889;51.112;13.772;2022-12-07T05:35:36;98702.19;;;0.36;100.00
39197;BME280;42889;51.112;13.772;2022-12-07T05:38:04;98696.47;;;0.42;100.00
39197;BME280;42889;51.112;13.772;2022-12-07T05:40:30;98693.53;;;0.34;100.00
39197;BME280;42889;51.112;13.772;2022-12-07T05:42:57;98695.31;;;0.46;100.00
39197;BME280;42889;51.112;13.772;2022-12-07T05:45:30;98678.59;;;0.46;100.00
39197;BME280;42889;51.112;13.772;2022-12-07T05:47:57;98690.97;;;0.45;100.00
39197;BME280;42889;51.112;13.772;2022-12-07T05:50:23;98680.78;;;0.65;100.00
39197;BME280;42889;51.112;13.772;2022-12-07T05:52:59;98682.38;;;0.55;100.00
39197;BME280;42889;51.112;13.772;2022-12-07T05:55:26;98679.72;;;0.55;100.00
39197;BME280;42889;51.112;13.772;2022-12-07T05:57:52;98672.13;;;0.63;100.00
39197;BME280;42889;51.112;13.772;2022-12-07T06:00:37;98670.72;;;0.70;100.00
39197;BME280;42889;51.112;13.772;2022-12-07T06:03:04;98668.06;;;0.70;100.00
39197;BME280;42889;51.112;13.772;2022-12-07T06:05:31;98672.75;;;0.66;100.00
39197;BME280;42889;51.112;13.772;2022-12-07T06:07:57;98670.84;;;0.68;100.00
39197;BME280;42889;51.112;13.772;2022-12-07T06:10:31;98673.69;;;0.78;100.00
39197;BME280;42889;51.112;13.772;2022-12-07T06:12:57;98664.13;;;0.75;100.00
39197;BME280;42889;51.112;13.772;2022-12-07T06:15:24;98668.47;;;0.89;100.00
39197;BME280;42889;51.112;13.772;2022-12-07T06:17:50;98658.66;;;1.02;100.00
39197;BME280;42889;51.112;13.772;2022-12-07T06:20:17;98659.16;;;0.84;100.00
39197;BME280;42889;51.112;13.772;2022-12-07T06:22:44;98657.22;;;0.86;100.00
39197;BME280;42889;51.112;13.772;2022-12-07T06:25:10;98656.28;;;0.87;100.00
39197;BME280;42889;51.112;13.772;2022-12-07T06:27:37;98648.63;;;0.95;100.00
39197;BME280;42889;51.112;13.772;2022-12-07T06:30:04;98656.28;;;0.87;100.00
39197;BME280;42889;51.112;13.772;2022-12-07T06:32:33;98664.44;;;0.84;100.00
39197;BME280;42889;51.112;13.772;2022-12-07T06:35:00;98656.19;;;0.88;100.00
39197;BME280;42889;51.112;13.772;2022-12-07T06:37:26;98651.88;;;0.98;100.00
39197;BME280;42889;51.112;13.772;2022-12-07T06:39:53;98661.00;;;1.07;100.00
39197;BME280;42889;51.112;13.772;2022-12-07T06:42:20;98659.56;;;1.14;100.00
39197;BME280;42889;51.112;13.772;2022-12-07T06:44:46;98661.06;;;1.18;100.00
39197;BME280;42889;51.112;13.772;2022-12-07T06:47:13;98662.97;;;1.16;100.00
39197;BME280;42889;51.112;13.772;2022-12-07T06:49:59;98665.19;;;1.22;100.00
39197;BME280;42889;51.112;13.772;2022-12-07T06:52:27;98661.56;;;1.23;100.00
39197;BME280;42889;51.112;13.772;2022-12-07T06:54:53;98661.56;;;1.23;100.00
39197;BME280;42889;51.112;13.772;2022-12-07T06:57:20;98657.63;;;1.29;100.00
39197;BME280;42889;51.112;13.772;2022-12-07T06:59:46;98670.88;;;1.29;100.00
39197;BME280;42889;51.112;13.772;2022-12-07T07:02:13;98672.28;;;1.22;100.00
39197;BME280;42889;51.112;13.772;2022-12-07T07:04:39;98671.78;;;1.17;100.00
39197;BME280;42889;51.112;13.772;2022-12-07T07:07:06;98671.16;;;1.13;100.00
39197;BME280;42889;51.112;13.772;2022-12-07T07:09:33;98665.63;;;1.16;100.00
39197;BME280;42889;51.112;13.772;2022-12-07T07:12:00;98663.31;;;1.12;100.00
39197;BME280;42889;51.112;13.772;2022-12-07T07:14:26;98662.28;;;1.01;100.00
39197;BME280;42889;51.112;13.772;2022-12-07T07:16:53;98671.41;;;0.97;100.00
39197;BME280;42889;51.112;13.772;2022-12-07T07:19:20;98679.03;;;1.02;100.00
39197;BME280;42889;51.112;13.772;2022-12-07T07:21:46;98670.88;;;0.92;100.00
39197;BME280;42889;51.112;13.772;2022-12-07T07:24:13;98675.56;;;0.89;100.00
39197;BME280;42889;51.112;13.772;2022-12-07T07:26:40;98680.09;;;0.87;100.00
39197;BME280;42889;51.112;13.772;2022-12-07T07:29:06;98675.78;;;0.86;100.00
39197;BME280;42889;51.112;13.772;2022-12-07T07:31:33;98680.66;;;0.79;100.00
39197;BME280;42889;51.112;13.772;2022-12-07T07:34:01;98676.72;;;0.85;100.00
39197;BME280;42889;51.112;13.772;2022-12-07T07:36:28;98685.41;;;0.87;100.00
39197;BME280;42889;51.112;13.772;2022-12-07T07:38:55;98685.66;;;0.84;100.00
39197;BME280;42889;51.112;13.772;2022-12-07T07:41:21;98681.59;;;0.91;100.00
39197;BME280;42889;51.112;13.772;2022-12-07T07:43:48;98679.34;;;0.97;100.00
39197;BME280;42889;51.112;13.772;2022-12-07T07:46:14;98676.69;;;0.97;100.00
39197;BME280;42889;51.112;13.772;2022-12-07T07:48:41;98681.66;;;1.02;100.00
39197;BME280;42889;51.112;13.772;2022-12-07T07:51:08;98683.16;;;1.06;100.00
39197;BME280;42889;51.112;13.772;2022-12-07T07:53:34;98688.34;;;1.08;100.00
39197;BME280;42889;51.112;13.772;2022-12-07T07:56:01;98684.28;;;1.15;100.00
39197;BME280;42889;51.112;13.772;2022-12-07T07:58:27;98684.78;;;1.20;100.00
39197;BME280;42889;51.112;13.772;2022-12-07T08:00:54;98687.00;;;1.26;100.00
39197;BME280;42889;51.112;13.772;2022-12-07T08:03:21;98697.38;;;1.29;100.00
39197;BME280;42889;51.112;13.772;2022-12-07T08:05:47;98693.16;;;1.26;100.00
39197;BME280;42889;51.112;13.772;2022-12-07T08:08:14;98689.63;;;1.39;100.00
39197;BME280;42889;51.112;13.772;2022-12-07T08:10:41;98688.66;;;1.40;100.00
39197;BME280;42889;51.112;13.772;2022-12-07T08:13:07;98688.78;;;1.38;100.00
39197;BME280;42889;51.112;13.772;2022-12-07T08:15:38;98687.69;;;1.41;100.00
39197;BME280;42889;51.112;13.772;2022-12-07T08:18:05;98687.94;;;1.38;100.00
39197;BME280;42889;51.112;13.772;2022-12-07T08:20:33;98684.47;;;1.48;100.00
39197;BME280;42889;51.112;13.772;2022-12-07T08:23:00;98684.03;;;1.54;100.00
39197;BME280;42889;51.112;13.772;2022-12-07T08:25:27;98685.59;;;1.57;100.00
39197;BME280;42889;51.112;13.772;2022-12-07T08:27:54;98682.50;;;1.63;100.00
39197;BME280;42889;51.112;13.772;2022-12-07T08:30:21;98683.25;;;1.65;100.00
39197;BME280;42889;51.112;13.772;2022-12-07T08:32:48;98678.41;;;1.70;100.00
39197;BME280;42889;51.112;13.772;2022-12-07T08:35:15;98683.38;;;1.75;100.00
39197;BME280;42889;51.112;13.772;2022-12-07T08:37:42;98680.00;;;1.73;100.00
39197;BME280;42889;51.112;13.772;2022-12-07T08:40:10;98682.31;;;1.77;100.00
39197;BME280;42889;51.112;13.772;2022-12-07T08:42:37;98682.78;;;1.71;100.00
39197;BME280;42889;51.112;13.772;2022-12-07T08:45:08;98678.81;;;1.77;100.00
39197;BME280;42889;51.112;13.772;2022-12-07T08:47:37;98683.78;;;1.81;100.00
39197;BME280;42889;51.112;13.772;2022-12-07T08:50:06;98688.47;;;1.78;100.00
39197;BME280;42889;51.112;13.772;2022-12-07T08:52:35;98686.69;;;1.90;100.00
39197;BME280;42889;51.112;13.772;2022-12-07T08:55:03;98692.25;;;1.98;100.00
39197;BME280;42889;51.112;13.772;2022-12-07T08:57:33;98689.16;;;2.04;100.00
39197;BME280;42889;51.112;13.772;2022-12-07T09:00:00;98687.06;;;1.96;100.00
39197;BME280;42889;51.112;13.772;2022-12-07T09:02:27;98688.19;;;2.05;100.00
39197;BME280;42889;51.112;13.772;2022-12-07T09:04:54;98694.38;;;2.17;100.00
39197;BME280;42889;51.112;13.772;2022-12-07T09:07:20;98690.53;;;2.21;100.00
39197;BME280;42889;51.112;13.772;2022-12-07T09:09:47;98690.56;;;2.32;100.00
39197;BME280;42889;51.112;13.772;2022-12-07T09:12:13;98700.69;;;2.27;100.00
39197;BME280;42889;51.112;13.772;2022-12-07T09:14:40;98695.97;;;2.30;100.00
39197;BME280;42889;51.112;13.772;2022-12-07T09:17:08;98698.53;;;2.32;100.00
39197;BME280;42889;51.112;13.772;2022-12-07T09:19:36;98704.19;;;2.38;100.00
39197;BME280;42889;51.112;13.772;2022-12-07T09:22:03;98697.78;;;2.41;100.00
39197;BME280;42889;51.112;13.772;2022-12-07T09:24:31;98696.03;;;2.53;100.00
39197;BME280;42889;51.112;13.772;2022-12-07T09:26:58;98687.09;;;2.54;100.00
39197;BME280;42889;51.112;13.772;2022-12-07T09:29:25;98692.63;;;2.62;100.00
39197;BME280;42889;51.112;13.772;2022-12-07T09:31:52;98688.06;;;2.64;100.00
39197;BME280;42889;51.112;13.772;2022-12-07T09:34:19;98692.41;;;2.65;100.00
39197;BME280;42889;51.112;13.772;2022-12-07T09:36:46;98689.25;;;2.60;100.00
39197;BME280;42889;51.112;13.772;2022-12-07T09:39:13;98687.81;;;2.67;100.00
39197;BME280;42889;51.112;13.772;2022-12-07T09:41:41;98679.25;;;2.75;100.00
39197;BME280;42889;51.112;13.772;2022-12-07T09:44:12;98691.94;;;2.71;100.00
39197;BME280;42889;51.112;13.772;2022-12-07T09:46:41;98688.66;;;2.79;100.00
39197;BME280;42889;51.112;13.772;2022-12-07T09:49:16;98680.81;;;2.88;100.00
39197;BME280;42889;51.112;13.772;2022-12-07T09:51:43;98686.00;;;2.90;100.00
39197;BME280;42889;51.112;13.772;2022-12-07T09:54:15;98691.78;;;2.95;100.00
39197;BME280;42889;51.112;13.772;2022-12-07T09:56:43;98680.69;;;2.90;100.00
39197;BME280;42889;51.112;13.772;2022-12-07T09:59:16;98680.78;;;3.00;100.00
39197;BME280;42889;51.112;13.772;2022-12-07T10:01:46;98677.78;;;2.93;100.00
39197;BME280;42889;51.112;13.772;2022-12-07T10:04:17;98681.16;;;2.95;100.00
39197;BME280;42889;51.112;13.772;2022-12-07T10:06:45;98672.47;;;2.93;100.00
39197;BME280;42889;51.112;13.772;2022-12-07T10:09:14;98673.31;;;3.05;100.00
39197;BME280;42889;51.112;13.772;2022-12-07T10:12:02;98666.25;;;3.26;100.00
39197;BME280;42889;51.112;13.772;2022-12-07T10:14:33;98664.75;;;3.44;100.00
39197;BME280;42889;51.112;13.772;2022-12-07T10:17:41;98659.66;;;3.53;100.00
39197;BME280;42889;51.112;13.772;2022-12-07T10:25:27;98648.09;;;3.75;100.00
39197;BME280;42889;51.112;13.772;2022-12-07T10:28:15;98660.41;;;3.76;100.00
39197;BME280;42889;51.112;13.772;2022-12-07T10:30:59;98662.75;;;3.90;100.00
39197;BME280;42889;51.112;13.772;2022-12-07T10:33:29;98649.78;;;3.96;100.00
39197;BME280;42889;51.112;13.772;2022-12-07T10:35:56;98648.34;;;3.92;100.00
39197;BME280;42889;51.112;13.772;2022-12-07T10:38:25;98647.06;;;3.87;100.00
39197;BME280;42889;51.112;13.772;2022-12-07T10:41:06;98646.34;;;3.85;100.00
39197;BME280;42889;51.112;13.772;2022-12-07T10:43:33;98635.03;;;3.72;100.00
39197;BME280;42889;51.112;13.772;2022-12-07T10:46:23;98649.44;;;3.69;100.00
39197;BME280;42889;51.112;13.772;2022-12-07T10:57:17;98645.75;;;3.49;100.00
39197;BME280;42889;51.112;13.772;2022-12-07T10:59:56;98651.09;;;3.38;100.00
39197;BME280;42889;51.112;13.772;2022-12-07T11:02:43;98649.44;;;3.37;100.00
39197;BME280;42889;51.112;13.772;2022-12-07T11:08:05;98634.94;;;3.30;100.00
39197;BME280;42889;51.112;13.772;2022-12-07T11:16:07;98629.91;;;3.15;100.00
39197;BME280;42889;51.112;13.772;2022-12-07T11:21:24;98619.97;;;3.17;100.00
39197;BME280;42889;51.112;13.772;2022-12-07T11:29:54;98626.84;;;3.31;100.00
39197;BME280;42889;51.112;13.772;2022-12-07T11:33:04;98619.72;;;3.32;100.00
39197;BME280;42889;51.112;13.772;2022-12-07T11:35:49;98618.13;;;3.29;100.00
39197;BME280;42889;51.112;13.772;2022-12-07T11:38:41;98614.16;;;3.24;100.00
39197;BME280;42889;51.112;13.772;2022-12-07T11:41:09;98621.56;;;3.20;100.00
39197;BME280;42889;51.112;13.772;2022-12-07T11:43:43;98626.56;;;2.80;100.00
39197;BME280;42889;51.112;13.772;2022-12-07T11:46:15;98635.53;;;2.56;100.00
39197;BME280;42889;51.112;13.772;2022-12-07T11:48:47;98641.78;;;2.33;100.00
39197;BME280;42889;51.112;13.772;2022-12-07T11:51:19;98635.63;;;2.21;100.00
39197;BME280;42889;51.112;13.772;2022-12-07T11:54:26;98628.75;;;2.30;100.00
39197;BME280;42889;51.112;13.772;2022-12-07T11:56:43;98627.31;;;2.37;100.00
39197;BME280;42889;51.112;13.772;2022-12-07T11:59:32;98624.06;;;2.33;100.00
39197;BME280;42889;51.112;13.772;2022-12-07T12:05:01;98615.47;;;2.41;100.00
39197;BME280;42889;51.112;13.772;2022-12-07T12:07:29;98615.47;;;2.41;100.00
39197;BME280;42889;51.112;13.772;2022-12-07T12:19:26;98604.84;;;2.07;100.00
39197;BME280;42889;51.112;13.772;2022-12-07T12:22:00;98604.63;;;2.22;100.00
39197;BME280;42889;51.112;13.772;2022-12-07T12:24:32;98603.28;;;2.27;100.00
39197;BME280;42889;51.112;13.772;2022-12-07T12:27:06;98599.66;;;2.40;100.00
39197;BME280;42889;51.112;13.772;2022-12-07T12:29:40;98598.97;;;2.37;100.00
39197;BME280;42889;51.112;13.772;2022-12-07T12:32:20;98603.06;;;2.53;100.00
39197;BME280;42889;51.112;13.772;2022-12-07T12:34:59;98604.13;;;2.73;100.00
39197;BME280;42889;51.112;13.772;2022-12-07T12:37:39;98600.00;;;2.80;100.00
39197;BME280;42889;51.112;13.772;2022-12-07T12:42:48;98604.56;;;3.00;100.00
39197;BME280;42889;51.112;13.772;2022-12-07T12:45:29;98598.06;;;2.82;100.00
39197;BME280;42889;51.112;13.772;2022-12-07T12:48:01;98593.47;;;2.84;100.00
39197;BME280;42889;51.112;13.772;2022-12-07T12:50:38;98595.50;;;3.03;100.00
39197;BME280;42889;51.112;13.772;2022-12-07T13:00:45;98595.38;;;3.04;100.00
39197;BME280;42889;51.112;13.772;2022-12-07T13:03:27;98592.59;;;3.06;100.00
39197;BME280;42889;51.112;13.772;2022-12-07T13:06:31;98592.09;;;3.01;100.00
39197;BME280;42889;51.112;13.772;2022-12-07T13:09:02;98591.25;;;3.00;100.00
39197;BME280;42889;51.112;13.772;2022-12-07T13:11:32;98592.13;;;2.89;100.00
39197;BME280;42889;51.112;13.772;2022-12-07T13:20:06;98602.88;;;1.87;100.00
39197;BME280;42889;51.112;13.772;2022-12-07T13:22:44;98604.06;;;1.72;100.00
39197;BME280;42889;51.112;13.772;2022-12-07T13:25:30;98603.31;;;1.70;100.00
39197;BME280;42889;51.112;13.772;2022-12-07T13:28:14;98611.44;;;1.44;100.00
39197;BME280;42889;51.112;13.772;2022-12-07T13:30:50;98607.13;;;1.30;100.00
39197;BME280;42889;51.112;13.772;2022-12-07T13:33:20;98610.28;;;1.36;100.00
39197;BME280;42889;51.112;13.772;2022-12-07T13:35:47;98601.53;;;1.11;100.00
39197;BME280;42889;51.112;13.772;2022-12-07T13:38:27;98603.94;;;1.14;100.00
39197;BME280;42889;51.112;13.772;2022-12-07T13:43:28;98592.84;;;1.33;100.00
39197;BME280;42889;51.112;13.772;2022-12-07T13:45:58;98596.38;;;1.45;100.00
39197;BME280;42889;51.112;13.772;2022-12-07T13:48:45;98590.50;;;1.64;100.00
39197;BME280;42889;51.112;13.772;2022-12-07T13:51:27;98593.69;;;1.80;100.00
39197;BME280;42889;51.112;13.772;2022-12-07T13:54:06;98588.41;;;1.91;100.00
39197;BME280;42889;51.112;13.772;2022-12-07T13:56:35;98592.66;;;1.94;100.00
39197;BME280;42889;51.112;13.772;2022-12-07T13:59:05;98599.63;;;1.95;100.00
39197;BME280;42889;51.112;13.772;2022-12-07T14:01:38;98592.78;;;2.03;100.00
39197;BME280;42889;51.112;13.772;2022-12-07T14:06:50;98603.03;;;2.19;100.00
39197;BME280;42889;51.112;13.772;2022-12-07T14:09:22;98599.66;;;2.17;100.00
39197;BME280;42889;51.112;13.772;2022-12-07T14:11:50;98595.34;;;2.27;100.00
39197;BME280;42889;51.112;13.772;2022-12-07T14:14:21;98589.19;;;2.27;100.00
39197;BME280;42889;51.112;13.772;2022-12-07T14:16:59;98595.19;;;2.29;100.00
39197;BME280;42889;51.112;13.772;2022-12-07T14:19:48;98597.38;;;2.13;100.00
39197;BME280;42889;51.112;13.772;2022-12-07T14:22:23;98604.13;;;2.17;100.00
39197;BME280;42889;51.112;13.772;2022-12-07T14:24:50;98598.81;;;2.28;100.00
39197;BME280;42889;51.112;13.772;2022-12-07T14:27:19;98592.31;;;2.32;100.00
39197;BME280;42889;51.112;13.772;2022-12-07T14:29:46;98589.06;;;2.40;100.00
39197;BME280;42889;51.112;13.772;2022-12-07T14:32:26;98587.25;;;2.40;100.00
39197;BME280;42889;51.112;13.772;2022-12-07T14:35:16;98581.94;;;2.40;100.00
39197;BME280;42889;51.112;13.772;2022-12-07T14:37:46;98581.78;;;2.42;100.00